Time;durP1;ratioP1;P1;durP2;ratioP2;P2;SDS_P1;SDS_P2;PMS_P1;PMS_P2;Temp;Humidity;BMP_temperature;BMP_pressure;BME280_temperature;BME280_humidity;BME280_pressure;Samples;Min_cycle;Max_cycle;Signal;HPM_P1;HPM_P2
2021/04/05 00:00:59;;;;;;;10.35;7.10;;;6.50;81.50;;;;;;5098594;28;20189;-54
2021/04/05 00:03:25;;;;;;;9.30;6.17;;;6.50;81.40;;;;;;5106237;27;20187;-55
2021/04/05 00:05:51;;;;;;;7.97;6.03;;;6.50;81.50;;;;;;5106087;27;20193;-54
2021/04/05 00:08:16;;;;;;;6.37;5.77;;;6.30;82.10;;;;;;5101553;28;20181;-54
2021/04/05 00:10:53;;;;;;;7.87;6.47;;;6.50;82.10;;;;;;5111395;28;20219;-54
2021/04/05 00:13:29;;;;;;;8.90;6.40;;;6.40;82.10;;;;;;5109788;27;20669;-54
2021/04/05 00:15:56;;;;;;;10.52;5.72;;;6.50;82.50;;;;;;5107590;28;20254;-55
2021/04/05 00:18:23;;;;;;;7.53;6.00;;;6.40;81.90;;;;;;5103425;28;20271;-55
2021/04/05 00:21:09;;;;;;;10.20;6.10;;;6.60;82.40;;;;;;5099498;27;20322;-55
2021/04/05 00:23:36;;;;;;;7.22;5.28;;;6.50;82.60;;;;;;5110138;28;20190;-54
2021/04/05 00:26:03;;;;;;;5.70;5.18;;;6.50;82.40;;;;;;5104771;28;20308;-55
2021/04/05 00:28:29;;;;;;;7.35;6.10;;;6.60;82.60;;;;;;5107116;28;20203;-54
2021/04/05 00:30:55;;;;;;;6.30;5.70;;;6.40;82.30;;;;;;5105823;28;20549;-55
2021/04/05 00:33:21;;;;;;;7.53;5.80;;;6.60;82.30;;;;;;5120301;28;20213;-55
2021/04/05 00:35:48;;;;;;;6.55;5.85;;;6.60;82.10;;;;;;5110637;28;20777;-55
2021/04/05 00:38:14;;;;;;;7.93;6.28;;;6.70;82.70;;;;;;5097332;28;20202;-54
2021/04/05 00:40:53;;;;;;;7.47;5.45;;;6.60;82.90;;;;;;5106213;28;20170;-55
2021/04/05 00:43:19;;;;;;;5.68;4.55;;;6.50;82.60;;;;;;5104403;28;20175;-54
2021/04/05 00:45:46;;;;;;;7.07;6.30;;;6.30;82.20;;;;;;5097728;28;20214;-54
2021/04/05 00:48:13;;;;;;;6.85;5.72;;;6.40;82.00;;;;;;5102355;27;20270;-55
2021/04/05 00:50:45;;;;;;;6.95;5.75;;;6.40;82.00;;;;;;5105957;28;20182;-54
2021/04/05 00:53:12;;;;;;;6.00;5.10;;;6.50;82.30;;;;;;5108806;28;20311;-55
2021/04/05 00:55:40;;;;;;;4.88;4.40;;;6.60;82.40;;;;;;5102676;28;20198;-54
2021/04/05 00:58:06;;;;;;;9.05;5.05;;;6.60;82.20;;;;;;5109282;28;20273;-55
2021/04/05 01:00:35;;;;;;;10.20;5.57;;;6.60;81.60;;;;;;5101794;28;20297;-54
2021/04/05 01:03:02;;;;;;;6.75;5.38;;;6.70;81.50;;;;;;5110334;28;20463;-55
2021/04/05 01:05:28;;;;;;;6.43;5.82;;;6.70;81.40;;;;;;5108195;28;20182;-54
2021/04/05 01:07:53;;;;;;;8.60;5.80;;;6.80;81.20;;;;;;5100568;28;20194;-55
2021/04/05 01:10:21;;;;;;;8.60;6.80;;;6.80;81.50;;;;;;5103310;28;21006;-55
2021/04/05 01:12:46;;;;;;;8.45;5.35;;;6.80;81.60;;;;;;5107436;27;20552;-55
2021/04/05 01:15:13;;;;;;;7.63;5.70;;;6.70;81.00;;;;;;5115306;27;20282;-54
2021/04/05 01:17:39;;;;;;;6.95;5.70;;;6.90;81.50;;;;;;5103601;27;20187;-54
2021/04/05 01:20:15;;;;;;;7.10;5.30;;;6.70;81.50;;;;;;5110807;28;20222;-54
2021/04/05 01:22:42;;;;;;;6.90;4.93;;;6.80;81.80;;;;;;5105270;27;20184;-54
2021/04/05 01:25:14;;;;;;;11.15;5.53;;;6.70;81.90;;;;;;5102579;28;20652;-55
2021/04/05 01:27:40;;;;;;;5.70;5.10;;;6.60;82.10;;;;;;5102353;27;20188;-54
2021/04/05 01:30:38;;;;;;;6.03;4.72;;;6.70;81.70;;;;;;5110125;27;20205;-53
2021/04/05 01:33:04;;;;;;;5.32;4.82;;;6.50;82.00;;;;;;5098912;27;20698;-55
2021/04/05 01:35:32;;;;;;;8.20;5.73;;;6.60;82.50;;;;;;5102400;27;20179;-55
2021/04/05 01:37:58;;;;;;;8.90;5.60;;;6.60;82.60;;;;;;5110185;27;20544;-55
2021/04/05 01:40:23;;;;;;;7.10;5.90;;;6.70;83.00;;;;;;5111751;27;20283;-55
2021/04/05 01:42:49;;;;;;;10.40;5.80;;;6.30;82.80;;;;;;5096834;27;20687;-55
2021/04/05 01:45:18;;;;;;;6.32;5.38;;;6.40;82.50;;;;;;5103181;27;20214;-55
2021/04/05 01:47:44;;;;;;;10.32;4.90;;;6.30;82.70;;;;;;5101398;28;20276;-54
2021/04/05 01:50:12;;;;;;;7.97;5.72;;;6.50;83.50;;;;;;5105419;27;20229;-55
2021/04/05 01:52:41;;;;;;;8.07;4.25;;;6.20;83.40;;;;;;5113127;27;20204;-55
2021/04/05 01:58:30;;;;;;;5.10;4.60;;;5.80;84.70;;;;;;5123341;27;20212;-55
2021/04/05 02:00:57;;;;;;;8.88;4.93;;;6.20;85.30;;;;;;5112131;27;20184;-55
2021/04/05 02:03:23;;;;;;;5.50;5.00;;;6.30;85.10;;;;;;5113981;27;20182;-55
2021/04/05 02:06:06;;;;;;;6.60;5.10;;;6.20;85.00;;;;;;5112647;27;20243;-55
2021/04/05 02:08:32;;;;;;;6.75;5.03;;;6.20;84.50;;;;;;5103919;27;20229;-54
2021/04/05 02:11:10;;;;;;;5.53;4.93;;;6.00;85.20;;;;;;5110619;27;20228;-54
2021/04/05 02:13:35;;;;;;;6.10;4.95;;;6.20;85.10;;;;;;5120483;27;20306;-54
2021/04/05 02:16:02;;;;;;;6.43;5.30;;;6.20;85.30;;;;;;5101997;28;20292;-55
2021/04/05 02:18:27;;;;;;;7.35;5.30;;;6.30;85.70;;;;;;5121301;27;20221;-54
2021/04/05 02:20:54;;;;;;;6.07;5.47;;;6.10;85.70;;;;;;5108832;27;20187;-55
2021/04/05 02:23:20;;;;;;;6.28;4.78;;;6.00;85.00;;;;;;5097590;28;20197;-54
2021/04/05 02:26:20;;;;;;;6.63;5.38;;;6.30;85.50;;;;;;5104740;28;20186;-55
2021/04/05 02:28:42;;;;;;;5.35;4.60;;;6.30;85.70;;;;;;5121251;27;20228;-55
2021/04/05 02:31:10;;;;;;;8.55;4.97;;;6.10;85.00;;;;;;5104898;27;20549;-54
2021/04/05 02:33:40;;;;;;;6.88;4.63;;;6.10;85.10;;;;;;5103131;27;20232;-54
2021/04/05 02:36:15;;;;;;;7.45;5.18;;;6.20;85.90;;;;;;5100574;28;20318;-55
2021/04/05 02:38:43;;;;;;;7.65;4.70;;;6.00;84.80;;;;;;5102703;28;20590;-54
2021/04/05 02:41:10;;;;;;;7.60;4.43;;;6.40;85.00;;;;;;5102630;27;20195;-55
2021/04/05 02:43:37;;;;;;;8.68;5.55;;;6.20;84.30;;;;;;5106142;27;20194;-54
2021/04/05 02:46:10;;;;;;;5.85;5.03;;;6.10;84.80;;;;;;5103081;27;20201;-54
2021/04/05 02:48:39;;;;;;;6.90;4.85;;;6.20;84.80;;;;;;5102220;27;20278;-54
2021/04/05 02:51:07;;;;;;;10.13;4.78;;;6.50;85.30;;;;;;5103049;27;20197;-54
2021/04/05 02:53:36;;;;;;;7.00;4.70;;;6.20;84.80;;;;;;5111972;27;20217;-54
2021/04/05 02:56:06;;;;;;;7.70;4.80;;;6.20;85.40;;;;;;5102438;27;20186;-54
2021/04/05 02:58:32;;;;;;;6.78;4.57;;;6.20;85.40;;;;;;5109065;27;20206;-54
2021/04/05 03:00:58;;;;;;;6.50;5.30;;;6.30;85.60;;;;;;5108971;27;20530;-55
2021/04/05 03:03:25;;;;;;;5.13;4.60;;;6.20;85.50;;;;;;5126652;27;20191;-55
2021/04/05 03:05:51;;;;;;;5.65;5.15;;;5.70;85.20;;;;;;5109315;27;20190;-54
2021/04/05 03:08:17;;;;;;;7.88;5.32;;;6.00;87.20;;;;;;5098537;27;20592;-55
2021/04/05 03:10:43;;;;;;;7.32;5.05;;;6.10;86.30;;;;;;5104278;27;20185;-54
2021/04/05 03:13:10;;;;;;;6.63;4.73;;;5.90;87.00;;;;;;5121645;27;20240;-54
2021/04/05 03:15:36;;;;;;;7.03;5.35;;;5.80;86.90;;;;;;5103134;27;20200;-54
2021/04/05 03:18:06;;;;;;;6.00;4.80;;;6.10;86.90;;;;;;5105989;27;20237;-54
2021/04/05 03:20:34;;;;;;;5.82;4.80;;;5.80;86.90;;;;;;5109640;27;20197;-54
2021/04/05 03:23:01;;;;;;;8.18;5.10;;;5.90;86.60;;;;;;5108130;27;20193;-54
2021/04/05 03:25:27;;;;;;;6.65;4.50;;;5.90;86.80;;;;;;5111607;27;20188;-55
2021/04/05 03:27:53;;;;;;;6.00;5.33;;;5.90;87.90;;;;;;5111420;27;20192;-55
2021/04/05 03:30:21;;;;;;;10.73;5.03;;;5.90;88.20;;;;;;5103902;27;20458;-55
2021/04/05 03:32:50;;;;;;;7.68;4.97;;;5.90;87.60;;;;;;5110430;27;20196;-55
2021/04/05 03:35:21;;;;;;;8.00;5.05;;;5.60;88.30;;;;;;5104620;28;20202;-54
2021/04/05 03:37:48;;;;;;;7.30;5.15;;;5.70;88.50;;;;;;5105916;27;20180;-54
2021/04/05 03:40:15;;;;;;;5.85;4.65;;;5.80;88.40;;;;;;5109058;28;20708;-55
2021/04/05 03:42:59;;;;;;;6.53;5.10;;;5.60;88.40;;;;;;5111679;27;20185;-55
2021/04/05 03:45:30;;;;;;;6.30;5.00;;;5.50;89.00;;;;;;5098174;27;20659;-55
2021/04/05 03:48:18;;;;;;;6.53;4.70;;;5.50;89.20;;;;;;5110703;27;20191;-54
2021/04/05 03:50:54;;;;;;;6.13;4.40;;;5.60;89.20;;;;;;5126516;27;20267;-55
2021/04/05 03:53:32;;;;;;;8.60;4.80;;;5.50;90.00;;;;;;5108201;27;20215;-55
2021/04/05 03:56:06;;;;;;;5.40;4.80;;;5.40;90.00;;;;;;5106639;27;20179;-54
2021/04/05 03:58:33;;;;;;;5.43;4.80;;;5.60;90.30;;;;;;5102428;28;20226;-55
2021/04/05 04:01:06;;;;;;;4.95;4.45;;;5.60;90.50;;;;;;5104559;27;20180;-54
2021/04/05 04:03:53;;;;;;;5.90;4.57;;;5.60;90.50;;;;;;5104934;27;20580;-55
2021/04/05 04:06:25;;;;;;;8.27;4.75;;;5.40;90.50;;;;;;5103543;27;20187;-54
2021/04/05 04:08:53;;;;;;;9.57;6.85;;;5.40;90.50;;;;;;5100995;27;20220;-54
2021/04/05 04:11:25;;;;;;;8.23;5.30;;;5.40;90.60;;;;;;5114210;27;20266;-55
2021/04/05 04:13:54;;;;;;;7.50;5.43;;;5.30;90.80;;;;;;5101252;28;20555;-54
2021/04/05 04:16:21;;;;;;;5.60;4.75;;;5.40;91.00;;;;;;5122332;27;20245;-55
2021/04/05 04:18:46;;;;;;;6.70;5.05;;;5.30;91.00;;;;;;5110350;28;20199;-54
2021/04/05 04:21:14;;;;;;;6.60;5.87;;;5.40;91.00;;;;;;5108923;28;20258;-54
2021/04/05 04:23:40;;;;;;;7.10;5.43;;;5.50;91.10;;;;;;5103511;27;20429;-54
2021/04/05 04:26:06;;;;;;;8.82;5.68;;;5.50;91.20;;;;;;5109952;28;20191;-54
2021/04/05 04:28:33;;;;;;;6.10;5.40;;;5.20;91.20;;;;;;5115948;28;20205;-55
2021/04/05 04:31:01;;;;;;;7.20;5.82;;;5.30;91.20;;;;;;5103021;28;20236;-54
2021/04/05 04:33:28;;;;;;;7.63;4.97;;;5.40;91.50;;;;;;5099019;28;20288;-54
2021/04/05 04:35:54;;;;;;;9.80;5.57;;;5.10;91.60;;;;;;5098966;28;20216;-54
2021/04/05 04:38:21;;;;;;;6.20;5.60;;;5.10;91.70;;;;;;5108896;28;20278;-54
2021/04/05 04:40:47;;;;;;;6.45;5.20;;;5.20;91.90;;;;;;5101544;28;20226;-54
2021/04/05 04:43:13;;;;;;;7.35;6.18;;;5.20;91.80;;;;;;5125365;28;20187;-54
2021/04/05 04:45:40;;;;;;;5.65;4.35;;;5.20;91.90;;;;;;5109634;28;20188;-54
2021/04/05 04:48:06;;;;;;;7.93;5.25;;;5.40;91.80;;;;;;5111316;27;20188;-54
2021/04/05 04:50:32;;;;;;;8.15;5.13;;;5.10;92.00;;;;;;5111423;28;20247;-54
2021/04/05 04:52:58;;;;;;;7.40;5.18;;;5.20;92.20;;;;;;5107984;27;20247;-55
2021/04/05 04:55:25;;;;;;;7.60;4.90;;;5.20;92.10;;;;;;5108684;27;20209;-54
2021/04/05 04:58:01;;;;;;;6.97;5.82;;;5.20;92.30;;;;;;5112407;27;20672;-54
2021/04/05 05:00:29;;;;;;;6.40;5.55;;;5.20;92.10;;;;;;5111521;27;20199;-54
2021/04/05 05:02:56;;;;;;;8.55;5.40;;;5.40;92.20;;;;;;5104930;27;20226;-55
2021/04/05 05:05:24;;;;;;;6.97;4.78;;;5.30;92.10;;;;;;5106048;27;20724;-54
2021/04/05 05:07:50;;;;;;;5.60;5.03;;;5.50;91.90;;;;;;5094538;28;20231;-55
2021/04/05 05:10:17;;;;;;;6.88;4.80;;;5.40;91.40;;;;;;5110647;28;20212;-55
2021/04/05 05:12:44;;;;;;;7.68;4.68;;;5.70;91.60;;;;;;5097021;28;20195;-55
2021/04/05 05:15:13;;;;;;;8.15;5.40;;;5.80;91.20;;;;;;5112741;27;20197;-54
2021/04/05 05:17:48;;;;;;;5.68;4.90;;;5.80;91.00;;;;;;5107189;27;20605;-55
2021/04/05 05:20:17;;;;;;;5.45;4.50;;;5.90;90.90;;;;;;5098248;27;20581;-55
2021/04/05 05:22:50;;;;;;;6.28;4.70;;;6.00;90.70;;;;;;5103076;27;20342;-54
2021/04/05 05:25:20;;;;;;;7.43;4.60;;;5.80;90.30;;;;;;5090032;27;20241;-55
2021/04/05 05:27:56;;;;;;;6.07;5.45;;;6.10;90.30;;;;;;5106762;27;20667;-55
2021/04/05 05:30:23;;;;;;;7.90;4.75;;;6.30;90.10;;;;;;5100172;27;20210;-55
2021/04/05 05:32:51;;;;;;;8.05;4.72;;;6.20;89.40;;;;;;5110338;27;20241;-55
2021/04/05 05:35:18;;;;;;;6.75;4.63;;;6.40;89.00;;;;;;5105417;27;20179;-55
2021/04/05 05:37:45;;;;;;;7.05;5.00;;;6.40;88.30;;;;;;5103856;27;20746;-54
2021/04/05 05:40:18;;;;;;;5.30;4.53;;;6.40;87.80;;;;;;5108228;27;20206;-54
2021/04/05 05:42:44;;;;;;;7.38;4.93;;;6.50;87.60;;;;;;5098299;28;20187;-54
2021/04/05 05:45:21;;;;;;;6.13;4.90;;;6.70;86.10;;;;;;5104730;28;20205;-54
2021/04/05 05:48:03;;;;;;;7.07;5.30;;;6.80;85.40;;;;;;5100349;27;20187;-53
2021/04/05 05:50:53;;;;;;;6.88;4.60;;;7.10;85.30;;;;;;5101271;27;20225;-53
2021/04/05 05:53:36;;;;;;;7.97;5.25;;;7.20;84.00;;;;;;5104029;27;20263;-53
2021/04/05 05:56:16;;;;;;;5.82;4.82;;;7.20;83.20;;;;;;5104853;27;20562;-53
2021/04/05 05:59:20;;;;;;;8.13;4.28;;;7.20;82.30;;;;;;5107932;27;20310;-53
2021/04/05 06:02:19;;;;;;;5.72;4.80;;;7.60;82.00;;;;;;5104921;27;20176;-53
2021/04/05 06:05:10;;;;;;;6.22;5.00;;;7.60;82.00;;;;;;5101899;27;20618;-53
2021/04/05 06:07:57;;;;;;;6.75;4.53;;;7.50;81.80;;;;;;5107266;27;20183;-53
2021/04/05 06:10:35;;;;;;;6.35;3.97;;;7.70;81.60;;;;;;5111445;27;20290;-53
2021/04/05 06:13:11;;;;;;;6.80;4.35;;;7.70;80.60;;;;;;5111531;27;20207;-53
2021/04/05 06:15:43;;;;;;;6.05;4.50;;;7.90;80.70;;;;;;5105058;27;20314;-53
2021/04/05 06:18:38;;;;;;;6.05;4.30;;;8.10;79.90;;;;;;5103917;27;20578;-54
2021/04/05 06:21:23;;;;;;;5.47;4.50;;;8.20;79.30;;;;;;5110575;27;20183;-55
2021/04/05 06:23:50;;;;;;;4.70;4.30;;;8.30;78.20;;;;;;5106809;28;20183;-53
2021/04/05 06:26:41;;;;;;;7.50;4.38;;;8.40;77.90;;;;;;5099366;27;20179;-53
2021/04/05 06:29:35;;;;;;;10.35;5.68;;;8.80;77.10;;;;;;5105718;27;20209;-53
2021/04/05 06:32:26;;;;;;;7.78;4.60;;;8.90;75.60;;;;;;5109930;27;20618;-53
2021/04/05 06:35:20;;;;;;;4.97;3.92;;;9.00;74.80;;;;;;5102690;28;20195;-53
2021/04/05 06:37:52;;;;;;;6.53;4.90;;;8.80;74.80;;;;;;5121474;27;20180;-53
2021/04/05 06:40:21;;;;;;;6.05;5.03;;;9.10;74.70;;;;;;5106428;27;20211;-53
2021/04/05 06:42:58;;;;;;;6.70;5.00;;;9.30;73.80;;;;;;5104693;28;20188;-53
2021/04/05 06:45:56;;;;;;;6.10;4.90;;;9.50;72.80;;;;;;5098366;27;20874;-53
2021/04/05 06:48:38;;;;;;;6.57;4.47;;;9.50;72.30;;;;;;5103976;27;20709;-54
2021/04/05 06:51:20;;;;;;;6.22;5.10;;;9.40;71.90;;;;;;5103602;27;20241;-53
2021/04/05 06:54:20;;;;;;;8.45;4.65;;;9.40;72.00;;;;;;5099990;27;20318;-53
2021/04/05 06:56:55;;;;;;;9.02;3.95;;;10.00;70.30;;;;;;5106677;27;20184;-54
2021/04/05 06:59:27;;;;;;;4.88;3.95;;;9.80;69.80;;;;;;5103214;27;20199;-54
2021/04/05 07:02:16;;;;;;;6.15;4.22;;;9.60;67.80;;;;;;5105851;27;20653;-54
2021/04/05 07:05:06;;;;;;;5.40;4.35;;;10.00;65.80;;;;;;5088681;27;20192;-53
2021/04/05 07:07:50;;;;;;;7.90;4.30;;;10.30;65.70;;;;;;5095973;27;20184;-53
2021/04/05 07:10:25;;;;;;;5.82;3.70;;;10.40;64.60;;;;;;5101862;28;20204;-53
2021/04/05 07:12:59;;;;;;;5.07;4.10;;;10.90;64.00;;;;;;5107474;27;20216;-54
2021/04/05 07:15:41;;;;;;;4.45;3.97;;;11.10;63.90;;;;;;5104787;27;20188;-53
2021/04/05 07:18:45;;;;;;;8.80;5.38;;;10.90;62.20;;;;;;5101088;27;20185;-53
2021/04/05 07:21:28;;;;;;;5.53;3.80;;;11.30;62.10;;;;;;5101312;27;20680;-54
2021/04/05 07:24:13;;;;;;;6.35;4.13;;;11.50;62.20;;;;;;5102100;28;20563;-53
2021/04/05 07:26:57;;;;;;;5.10;4.30;;;11.50;61.40;;;;;;5106176;27;20178;-53
2021/04/05 07:30:08;;;;;;;5.55;4.20;;;11.90;60.50;;;;;;5109100;27;20197;-53
2021/04/05 07:32:39;;;;;;;5.35;4.30;;;12.10;59.20;;;;;;5115147;27;20702;-53
2021/04/05 07:35:05;;;;;;;4.40;4.00;;;12.60;57.90;;;;;;5100578;27;20183;-53
2021/04/05 07:37:45;;;;;;;5.50;4.97;;;13.30;56.70;;;;;;5104071;27;20196;-53
2021/04/05 07:40:32;;;;;;;7.93;4.55;;;13.80;55.60;;;;;;5097768;27;20248;-53
2021/04/05 07:43:21;;;;;;;5.55;4.85;;;14.30;54.90;;;;;;5101160;27;20193;-53
2021/04/05 07:46:13;;;;;;;5.53;4.22;;;15.20;52.90;;;;;;5102703;27;20338;-53
2021/04/05 07:48:47;;;;;;;6.45;4.13;;;15.70;51.30;;;;;;5062900;27;20244;-53
2021/04/05 07:51:24;;;;;;;6.80;4.40;;;17.20;49.50;;;;;;5108827;27;20619;-53
2021/04/05 07:53:58;;;;;;;4.75;3.95;;;17.80;47.10;;;;;;5103228;27;20203;-53
2021/04/05 07:56:26;;;;;;;6.30;4.75;;;18.30;46.30;;;;;;5120263;27;20171;-53
2021/04/05 07:59:21;;;;;;;6.40;4.20;;;19.30;44.70;;;;;;5103982;27;20206;-53
2021/04/05 08:01:57;;;;;;;5.50;4.30;;;19.30;43.60;;;;;;5109257;27;20193;-53
2021/04/05 08:04:31;;;;;;;6.18;4.80;;;18.80;43.90;;;;;;5106770;27;20178;-53
2021/04/05 08:07:08;;;;;;;6.35;4.00;;;18.90;43.60;;;;;;5097828;27;20674;-53
2021/04/05 08:09:42;;;;;;;5.65;3.80;;;19.40;43.30;;;;;;5102142;27;20206;-53
2021/04/05 08:12:21;;;;;;;6.05;5.15;;;19.90;43.20;;;;;;5107610;27;20667;-53
2021/04/05 08:15:04;;;;;;;4.90;4.07;;;20.60;41.50;;;;;;5105268;27;20183;-55
2021/04/05 08:17:56;;;;;;;4.70;3.97;;;20.20;41.70;;;;;;5102177;27;20644;-55
2021/04/05 08:20:31;;;;;;;7.55;4.75;;;20.30;41.80;;;;;;5104625;28;20293;-55
2021/04/05 08:23:14;;;;;;;5.43;4.00;;;20.20;41.80;;;;;;5101018;27;20549;-55
2021/04/05 08:26:00;;;;;;;4.73;3.80;;;20.90;41.20;;;;;;5091026;28;20436;-54
2021/04/05 08:28:45;;;;;;;5.78;4.00;;;20.70;41.10;;;;;;5100689;28;20475;-53
2021/04/05 08:31:49;;;;;;;6.35;4.20;;;20.40;41.20;;;;;;5103409;28;20660;-53
2021/04/05 08:34:20;;;;;;;7.70;5.00;;;20.20;41.50;;;;;;5103185;28;20183;-51
2021/04/05 08:37:31;;;;;;;5.45;4.18;;;20.20;41.50;;;;;;5095864;28;20186;-51
2021/04/05 08:39:57;;;;;;;4.45;3.35;;;19.70;42.20;;;;;;5072783;28;20593;-54
2021/04/05 08:42:41;;;;;;;8.88;3.65;;;19.20;42.50;;;;;;5104077;28;20195;-54
2021/04/05 08:45:18;;;;;;;4.90;3.08;;;18.80;41.90;;;;;;5094633;28;20225;-54
2021/04/05 08:47:49;;;;;;;3.40;2.80;;;18.20;42.20;;;;;;5108216;28;20178;-53
2021/04/05 08:50:17;;;;;;;7.70;3.35;;;17.70;41.70;;;;;;5106310;28;20198;-54
2021/04/05 08:52:45;;;;;;;5.85;3.20;;;17.50;41.80;;;;;;5116126;28;20713;-54
2021/04/05 08:55:18;;;;;;;18.42;3.58;;;17.20;41.60;;;;;;5100478;28;20648;-55
2021/04/05 08:58:27;;;;;;;4.28;2.80;;;16.50;41.60;;;;;;5097844;28;20210;-54
2021/04/05 09:00:58;;;;;;;7.60;3.00;;;15.70;42.30;;;;;;5089593;28;20660;-56
2021/04/05 09:03:28;;;;;;;5.68;3.05;;;16.30;43.00;;;;;;5097776;28;20267;-54
2021/04/05 09:05:55;;;;;;;5.13;2.97;;;16.40;43.30;;;;;;5103433;28;20185;-55
2021/04/05 09:08:23;;;;;;;10.15;3.60;;;16.60;43.20;;;;;;5106308;28;20304;-56
2021/04/05 09:11:04;;;;;;;4.15;3.72;;;16.30;43.30;;;;;;5101472;28;20181;-56
2021/04/05 09:13:55;;;;;;;5.70;3.05;;;15.70;43.80;;;;;;5099369;28;20616;-56
2021/04/05 09:16:39;;;;;;;5.55;3.45;;;15.30;44.90;;;;;;5103745;28;20222;-54
2021/04/05 09:19:37;;;;;;;4.00;2.75;;;15.10;44.90;;;;;;5112437;28;20218;-56
2021/04/05 09:22:21;;;;;;;6.00;3.22;;;14.70;45.20;;;;;;5105772;28;20224;-52
2021/04/05 09:25:10;;;;;;;8.52;3.00;;;14.40;46.10;;;;;;5100139;28;20214;-53
2021/04/05 09:28:02;;;;;;;4.82;3.20;;;14.20;46.50;;;;;;5108098;28;20186;-53
2021/04/05 09:30:49;;;;;;;7.53;3.10;;;14.10;47.30;;;;;;5094012;28;20205;-50
2021/04/05 09:33:33;;;;;;;7.38;3.72;;;14.00;47.30;;;;;;5107243;28;20234;-58
2021/04/05 09:36:14;;;;;;;5.80;3.38;;;13.90;47.60;;;;;;5119316;27;20210;-58
2021/04/05 09:39:07;;;;;;;6.43;4.18;;;13.80;47.80;;;;;;5106567;27;20231;-58
2021/04/05 09:41:52;;;;;;;3.95;2.85;;;14.30;47.40;;;;;;5110487;27;20171;-56
2021/04/05 09:44:45;;;;;;;3.35;2.60;;;13.90;46.90;;;;;;5098813;27;20184;-54
2021/04/05 09:48:00;;;;;;;5.97;3.55;;;14.00;47.10;;;;;;5117914;27;20224;-54
2021/04/05 09:50:52;;;;;;;4.28;2.65;;;14.20;46.70;;;;;;5102816;28;20213;-53
2021/04/05 09:53:46;;;;;;;4.93;3.20;;;13.80;46.00;;;;;;5080900;27;20226;-53
2021/04/05 09:56:19;;;;;;;4.40;3.20;;;14.00;45.80;;;;;;5112320;27;20182;-52
2021/04/05 09:58:56;;;;;;;3.72;2.60;;;14.70;45.40;;;;;;5101539;27;20323;-53
2021/04/05 10:01:25;;;;;;;5.63;2.40;;;14.40;44.50;;;;;;5108150;27;20217;-54
2021/04/05 10:03:55;;;;;;;8.88;3.30;;;14.40;44.10;;;;;;5104861;27;20185;-54
2021/04/05 10:06:24;;;;;;;4.68;2.50;;;13.70;43.80;;;;;;5120080;27;20530;-57
2021/04/05 10:08:51;;;;;;;4.97;3.05;;;14.10;44.30;;;;;;5112265;27;20251;-57
2021/04/05 10:11:18;;;;;;;5.53;2.88;;;14.30;44.20;;;;;;5109466;27;20213;-55
2021/04/05 10:13:49;;;;;;;5.60;3.00;;;14.20;44.10;;;;;;5104446;27;20276;-54
2021/04/05 10:16:19;;;;;;;5.50;2.97;;;14.30;44.50;;;;;;5093546;27;20182;-54
2021/04/05 10:18:50;;;;;;;5.95;3.50;;;14.10;44.00;;;;;;5105743;27;20259;-54
2021/04/05 10:21:17;;;;;;;6.97;2.95;;;14.40;44.30;;;;;;5110626;27;20624;-53
2021/04/05 10:23:44;;;;;;;8.13;3.53;;;14.20;43.80;;;;;;5109397;28;20589;-54
2021/04/05 10:26:14;;;;;;;5.97;3.08;;;14.70;43.90;;;;;;5119803;27;20174;-56
2021/04/05 10:28:41;;;;;;;5.47;2.63;;;14.60;43.50;;;;;;5110675;27;20202;-55
2021/04/05 10:31:12;;;;;;;5.45;2.88;;;14.50;43.30;;;;;;5110233;27;20183;-56
2021/04/05 10:33:42;;;;;;;6.25;2.88;;;14.50;42.90;;;;;;5104245;27;20204;-54
2021/04/05 10:36:11;;;;;;;2.80;2.60;;;14.60;43.30;;;;;;5103937;27;20175;-55
2021/04/05 10:38:38;;;;;;;3.65;2.80;;;14.60;42.30;;;;;;5108741;27;20226;-55
2021/04/05 10:41:08;;;;;;;5.50;3.78;;;14.80;41.40;;;;;;5106202;27;20190;-54
2021/04/05 10:43:43;;;;;;;3.60;2.80;;;14.50;41.10;;;;;;5107364;28;20263;-55
2021/04/05 10:46:18;;;;;;;6.50;2.97;;;14.50;41.00;;;;;;5106583;27;20178;-53
2021/04/05 10:48:49;;;;;;;4.05;2.80;;;14.30;41.30;;;;;;5104535;27;20281;-56
2021/04/05 10:51:39;;;;;;;5.50;2.70;;;14.50;41.10;;;;;;5100268;27;20190;-57
2021/04/05 10:54:05;;;;;;;4.93;2.47;;;14.40;41.10;;;;;;5101254;27;20206;-53
2021/04/05 10:56:37;;;;;;;3.83;2.93;;;14.50;41.00;;;;;;5109640;27;20204;-54
2021/04/05 10:59:13;;;;;;;3.95;2.88;;;14.80;40.70;;;;;;5120869;27;20557;-54
2021/04/05 11:01:44;;;;;;;4.70;2.90;;;14.60;40.30;;;;;;5127508;27;20179;-53
2021/04/05 11:04:12;;;;;;;5.10;3.25;;;14.90;40.10;;;;;;5099142;27;20224;-56
2021/04/05 11:06:38;;;;;;;7.07;2.75;;;15.10;40.00;;;;;;5102562;27;20183;-56
2021/04/05 11:09:06;;;;;;;4.43;2.95;;;15.20;40.00;;;;;;5101912;27;20212;-56
2021/04/05 11:11:34;;;;;;;4.50;2.80;;;15.30;39.60;;;;;;5106056;27;20640;-55
2021/04/05 11:14:14;;;;;;;6.13;3.03;;;15.20;39.70;;;;;;5104979;27;20207;-55
2021/04/05 11:16:48;;;;;;;3.75;2.70;;;14.70;39.20;;;;;;5105498;27;20293;-54
2021/04/05 11:19:17;;;;;;;5.90;2.80;;;14.90;39.20;;;;;;5110425;27;20198;-54
2021/04/05 11:21:49;;;;;;;4.05;3.00;;;14.90;39.50;;;;;;5098456;27;20255;-53
2021/04/05 11:24:16;;;;;;;3.85;2.92;;;14.90;39.60;;;;;;5104479;27;20179;-57
2021/04/05 11:26:45;;;;;;;3.88;2.60;;;15.00;40.00;;;;;;5097913;27;20203;-57
2021/04/05 11:29:15;;;;;;;6.72;2.95;;;15.30;40.40;;;;;;5100881;27;20700;-58
2021/04/05 11:31:48;;;;;;;4.65;3.33;;;15.20;40.70;;;;;;5098702;27;20246;-56
2021/04/05 11:34:15;;;;;;;6.00;3.30;;;15.40;40.50;;;;;;5105787;27;20206;-58
2021/04/05 11:36:48;;;;;;;4.90;3.58;;;15.40;41.50;;;;;;5100391;27;20210;-57
2021/04/05 11:39:20;;;;;;;5.50;3.55;;;15.30;42.60;;;;;;5101433;27;20226;-56
2021/04/05 11:41:52;;;;;;;6.15;3.78;;;15.20;44.00;;;;;;5101296;27;20179;-54
2021/04/05 11:44:20;;;;;;;6.85;4.22;;;15.00;44.50;;;;;;5101381;27;20194;-54
2021/04/05 11:46:48;;;;;;;6.13;4.15;;;15.00;45.50;;;;;;5123085;27;20175;-55
2021/04/05 11:49:14;;;;;;;6.07;4.40;;;15.20;46.00;;;;;;5101712;27;20210;-52
2021/04/05 11:51:54;;;;;;;6.35;4.72;;;15.10;46.30;;;;;;5105371;27;20198;-53
2021/04/05 11:54:50;;;;;;;11.25;5.25;;;14.90;46.60;;;;;;5111334;27;20218;-53
2021/04/05 11:57:26;;;;;;;6.20;4.35;;;14.90;47.40;;;;;;5101749;27;20233;-53
2021/04/05 11:59:58;;;;;;;9.80;4.70;;;14.90;48.10;;;;;;5101924;27;20725;-54
2021/04/05 12:03:01;;;;;;;10.13;4.50;;;14.70;48.30;;;;;;5123415;27;20191;-52
2021/04/05 12:05:33;;;;;;;10.10;5.25;;;14.80;49.10;;;;;;5068173;27;20225;-53
2021/04/05 12:08:28;;;;;;;5.50;4.65;;;14.80;48.60;;;;;;5101419;28;20191;-54
2021/04/05 12:11:04;;;;;;;8.48;5.40;;;14.50;48.90;;;;;;5094606;27;20190;-55
2021/04/05 12:13:30;;;;;;;6.47;5.30;;;14.60;48.90;;;;;;5101707;27;20678;-55
2021/04/05 12:15:58;;;;;;;8.07;4.75;;;14.60;49.00;;;;;;5099313;27;20202;-52
2021/04/05 12:18:25;;;;;;;5.55;4.90;;;14.60;48.90;;;;;;5102946;28;20528;-55
2021/04/05 12:21:12;;;;;;;7.32;5.00;;;14.70;49.00;;;;;;5102052;27;20188;-55
2021/04/05 12:23:39;;;;;;;7.78;4.88;;;14.50;49.40;;;;;;5105836;27;20269;-52
2021/04/05 12:26:06;;;;;;;8.90;5.53;;;14.60;49.50;;;;;;5123491;27;20208;-53
2021/04/05 12:28:40;;;;;;;8.38;6.15;;;14.40;50.60;;;;;;5125019;27;20214;-54
2021/04/05 12:31:08;;;;;;;10.10;6.22;;;14.30;51.10;;;;;;5097388;28;20247;-53
2021/04/05 12:33:35;;;;;;;9.95;8.52;;;14.40;51.90;;;;;;5121130;28;20576;-53
2021/04/05 12:36:03;;;;;;;11.00;6.53;;;14.30;52.50;;;;;;5101593;28;20179;-55
2021/04/05 12:38:38;;;;;;;8.30;5.90;;;14.20;52.80;;;;;;5104715;28;20190;-54
2021/04/05 12:41:06;;;;;;;10.55;6.47;;;14.30;53.30;;;;;;5102536;28;20181;-54
2021/04/05 12:43:35;;;;;;;8.82;6.35;;;14.20;53.50;;;;;;5100031;28;20644;-54
2021/04/05 12:46:05;;;;;;;11.20;6.32;;;13.90;53.60;;;;;;5102566;28;20182;-54
2021/04/05 12:48:34;;;;;;;10.35;7.00;;;14.00;53.80;;;;;;5100045;28;20298;-54
2021/04/05 12:51:05;;;;;;;12.27;7.47;;;14.00;54.10;;;;;;5125681;28;20182;-53
2021/04/05 12:53:34;;;;;;;9.63;6.40;;;13.60;54.00;;;;;;5128941;28;20198;-53
2021/04/05 12:56:01;;;;;;;8.85;7.45;;;13.80;54.60;;;;;;5102500;28;20550;-54
2021/04/05 12:58:28;;;;;;;8.32;6.88;;;13.80;55.20;;;;;;5095999;28;20285;-54
2021/04/05 13:00:54;;;;;;;11.95;6.47;;;13.70;55.30;;;;;;5098603;28;20271;-53
2021/04/05 13:03:23;;;;;;;11.77;6.78;;;13.50;55.20;;;;;;5107958;28;20632;-53
2021/04/05 13:06:04;;;;;;;11.77;7.25;;;13.90;55.60;;;;;;5101484;28;20484;-54
2021/04/05 13:08:51;;;;;;;12.38;6.70;;;13.80;55.60;;;;;;5107763;27;20210;-54
2021/04/05 13:11:35;;;;;;;12.20;7.95;;;13.70;55.60;;;;;;5109737;27;20246;-54
2021/04/05 13:14:18;;;;;;;11.18;8.20;;;13.80;56.10;;;;;;5109165;27;21141;-55
2021/04/05 13:16:52;;;;;;;9.75;7.00;;;13.50;56.50;;;;;;5107247;27;20199;-55
2021/04/05 13:19:22;;;;;;;12.25;7.80;;;13.50;56.40;;;;;;5110538;27;20594;-54
2021/04/05 13:21:48;;;;;;;11.48;8.32;;;13.40;56.70;;;;;;5125801;27;20185;-54
2021/04/05 13:24:22;;;;;;;11.70;7.80;;;13.00;56.30;;;;;;5104162;27;20185;-56
2021/04/05 13:26:57;;;;;;;11.60;8.05;;;13.20;56.70;;;;;;5117628;27;20504;-54
2021/04/05 13:29:24;;;;;;;14.02;7.45;;;13.00;56.60;;;;;;5104337;27;20209;-55